CVP2 weather

Île Sainte-Hélène Water Airport
Montréal, Quebec, Canada

Public forecast

Using degrees Celsius for public forecast. Weather courtesy of forecast.io.

METAR (pilot weather report)

Closest report is Montréal / Saint-Hubert Airport, 5.2 nm (9.6 km) E. Retrieved 2019/09/19 09:00 UTC (22 minutes ago):

CYHU 190900Z AUTO 00000KT 9SM CLR 04/04 A3032 RMK SLP270

TAF (pilot weather forecast)

Closest forecast is Montréal / Saint-Hubert Airport, 5.2 nm (9.6 km) E. Retrieved 2019/09/19 06:42 UTC (3 hours ago):

TAF TAF CYHU 190538Z 1906/2006 VRB03KT P6SM SKC FM191000 VRB03KT P6SM SKC PROB30 1910/1913 1SM BR BKN002 FM191500 20008KT P6SM FEW040 BECMG 2004/2006 23007KT RMK FCST BASED ON AUTO OBS. NXT FCST BY 191200Z